Time;durP1;ratioP1;P1;durP2;ratioP2;P2;SDS_P1;SDS_P2;PMS_P1;PMS_P2;Temp;Humidity;BMP_temperature;BMP_pressure;BME280_temperature;BME280_humidity;BME280_pressure;Samples;Min_cycle;Max_cycle;Signal;HPM_P1;HPM_P2
2023/10/05 00:02:56;;;;;;;1.95;1.10;;;19.10;70.10;;;;;;5115028;28;20226;-75
2023/10/05 00:05:22;;;;;;;2.05;1.35;;;19.10;70.10;;;;;;5119808;27;20170;-76
2023/10/05 00:07:48;;;;;;;3.17;1.42;;;19.20;71.00;;;;;;5097166;28;20188;-76
2023/10/05 00:10:17;;;;;;;1.65;1.08;;;19.10;70.10;;;;;;5114617;28;20169;-76
2023/10/05 00:12:47;;;;;;;1.15;1.05;;;19.10;70.10;;;;;;5115426;28;20541;-75
2023/10/05 00:15:17;;;;;;;2.53;1.50;;;19.10;70.10;;;;;;5115076;28;20215;-76
2023/10/05 00:17:42;;;;;;;1.92;1.20;;;19.10;70.20;;;;;;5114434;28;20278;-74
2023/10/05 00:20:11;;;;;;;2.20;1.10;;;19.10;70.10;;;;;;5115318;28;20260;-73
2023/10/05 00:22:37;;;;;;;3.10;1.40;;;19.10;70.20;;;;;;5115333;28;20181;-74
2023/10/05 00:25:04;;;;;;;1.67;1.40;;;19.10;70.20;;;;;;5114476;28;20172;-72
2023/10/05 00:27:30;;;;;;;1.50;1.30;;;19.10;70.20;;;;;;5115040;28;20193;-76
2023/10/05 00:29:57;;;;;;;1.70;1.40;;;19.10;70.20;;;;;;5115098;28;20708;-75
2023/10/05 00:32:25;;;;;;;1.70;1.00;;;19.10;70.20;;;;;;5114145;28;20174;-76
2023/10/05 00:34:55;;;;;;;1.98;1.30;;;19.10;70.20;;;;;;5115191;28;20214;-77
2023/10/05 00:37:22;;;;;;;2.83;1.40;;;19.10;70.30;;;;;;5114059;28;20185;-75
2023/10/05 00:39:49;;;;;;;2.15;1.42;;;19.00;70.20;;;;;;5115104;28;20203;-76
2023/10/05 00:42:16;;;;;;;2.00;1.05;;;19.10;70.20;;;;;;5114648;28;20181;-75
2023/10/05 00:44:42;;;;;;;2.13;1.25;;;19.10;70.30;;;;;;5114230;28;20173;-76
2023/10/05 00:47:08;;;;;;;1.27;1.10;;;19.10;70.20;;;;;;5114604;28;20375;-76
2023/10/05 00:49:45;;;;;;;2.25;1.55;;;19.10;70.30;;;;;;5114953;28;20177;-74
2023/10/05 00:52:15;;;;;;;1.20;1.08;;;19.10;70.30;;;;;;5113832;28;20203;-75
2023/10/05 00:54:44;;;;;;;3.38;1.40;;;19.00;70.20;;;;;;5096948;28;20169;-75
2023/10/05 00:57:14;;;;;;;1.85;1.20;;;19.00;70.20;;;;;;5114169;28;20223;-75
2023/10/05 00:59:47;;;;;;;2.17;1.30;;;19.00;70.20;;;;;;5113882;28;20173;-76
2023/10/05 01:02:20;;;;;;;3.00;1.30;;;19.00;70.20;;;;;;5097433;28;20180;-75
2023/10/05 01:07:18;;;;;;;1.92;1.17;;;19.10;70.30;;;;;;5095293;28;20223;-75
2023/10/05 01:10:28;;;;;;;2.53;1.38;;;19.10;70.30;;;;;;5096878;28;20543;-76
2023/10/05 01:12:54;;;;;;;2.28;1.27;;;19.10;70.40;;;;;;5113773;28;20551;-76
2023/10/05 01:15:21;;;;;;;1.67;1.20;;;19.10;70.30;;;;;;5113922;28;20699;-74
2023/10/05 01:17:48;;;;;;;1.42;1.20;;;19.00;70.30;;;;;;5114335;28;20222;-76
2023/10/05 01:22:45;;;;;;;1.52;1.20;;;19.10;70.30;;;;;;5114294;28;20180;-75
2023/10/05 01:25:14;;;;;;;1.38;1.23;;;19.00;70.30;;;;;;5113795;28;20651;-73
2023/10/05 01:27:44;;;;;;;1.27;1.00;;;19.00;70.30;;;;;;5113303;28;20166;-74
2023/10/05 01:30:12;;;;;;;1.67;1.10;;;19.10;70.30;;;;;;5113782;28;20177;-75
2023/10/05 01:32:38;;;;;;;2.88;1.27;;;19.00;70.30;;;;;;5113879;28;20180;-77
2023/10/05 01:35:08;;;;;;;1.17;1.05;;;19.00;70.30;;;;;;5113050;28;20209;-76
2023/10/05 01:37:36;;;;;;;2.20;1.08;;;19.00;70.30;;;;;;5113892;28;20222;-76
2023/10/05 01:40:11;;;;;;;2.28;1.23;;;19.00;70.40;;;;;;5113572;28;20647;-75
2023/10/05 01:42:40;;;;;;;1.63;1.20;;;19.00;70.30;;;;;;5113024;28;20221;-76
2023/10/05 01:45:07;;;;;;;2.25;1.10;;;19.00;70.30;;;;;;5113450;28;20177;-76
2023/10/05 01:47:32;;;;;;;1.80;1.40;;;19.00;70.30;;;;;;5113359;28;20730;-75
2023/10/05 01:49:58;;;;;;;1.17;1.08;;;19.00;70.30;;;;;;5112682;28;20189;-75
2023/10/05 01:52:23;;;;;;;1.58;1.23;;;19.00;70.40;;;;;;5113568;28;20169;-76
2023/10/05 01:54:51;;;;;;;1.73;1.20;;;19.00;70.30;;;;;;5112866;28;20184;-76
2023/10/05 01:57:17;;;;;;;1.52;1.30;;;19.00;70.40;;;;;;5113209;28;20180;-75
2023/10/05 01:59:43;;;;;;;2.40;1.23;;;19.00;70.40;;;;;;5113342;28;20169;-75
2023/10/05 02:02:12;;;;;;;2.33;1.35;;;19.00;70.40;;;;;;5112571;28;20184;-76
2023/10/05 02:04:40;;;;;;;1.55;1.05;;;19.00;70.40;;;;;;5113287;28;20631;-76
2023/10/05 02:07:05;;;;;;;1.42;1.25;;;19.00;70.40;;;;;;5113222;28;20192;-75
2023/10/05 02:09:31;;;;;;;1.30;1.15;;;19.00;70.40;;;;;;5112516;28;20173;-77
2023/10/05 02:12:01;;;;;;;2.35;1.33;;;19.00;70.30;;;;;;5113387;28;20173;-75
2023/10/05 02:14:27;;;;;;;1.30;1.20;;;19.00;70.30;;;;;;5113036;28;20181;-75
2023/10/05 02:16:52;;;;;;;2.45;1.50;;;18.90;70.40;;;;;;5112623;28;20550;-75
2023/10/05 02:19:19;;;;;;;1.50;1.15;;;18.90;70.30;;;;;;5112967;28;20175;-73
2023/10/05 02:21:45;;;;;;;2.75;1.20;;;19.00;70.30;;;;;;5113271;28;20277;-74
2023/10/05 02:24:22;;;;;;;1.65;1.33;;;18.90;70.30;;;;;;5112050;28;20263;-74
2023/10/05 02:29:30;;;;;;;1.35;1.25;;;18.90;70.30;;;;;;5113057;28;20180;-75
2023/10/05 02:32:05;;;;;;;1.95;1.10;;;18.90;70.30;;;;;;5111502;28;20184;-75
2023/10/05 02:35:18;;;;;;;1.67;1.30;;;18.90;70.30;;;;;;5112983;28;20179;-76
2023/10/05 02:37:28;;;;;;;1.48;1.10;;;18.90;70.30;;;;;;5107830;28;20299;-76
2023/10/05 02:39:53;;;;;;;4.35;1.02;;;18.90;70.30;;;;;;5112896;28;20177;-75
2023/10/05 02:42:21;;;;;;;1.50;1.33;;;18.90;70.30;;;;;;5112703;28;20188;-74
2023/10/05 02:44:49;;;;;;;2.97;1.50;;;18.90;70.30;;;;;;5094607;28;20173;-75
2023/10/05 02:47:22;;;;;;;1.80;1.10;;;18.90;70.40;;;;;;5112434;28;20228;-75
2023/10/05 02:49:48;;;;;;;2.10;1.40;;;18.90;70.40;;;;;;5112856;28;20169;-76
2023/10/05 02:52:16;;;;;;;2.45;1.20;;;18.90;70.40;;;;;;5111996;28;20183;-76
2023/10/05 02:54:47;;;;;;;1.70;1.30;;;18.90;70.40;;;;;;5112911;28;20169;-76
2023/10/05 02:57:14;;;;;;;2.63;1.27;;;18.90;70.40;;;;;;5112570;28;20636;-75
2023/10/05 02:59:43;;;;;;;1.63;1.30;;;18.90;71.20;;;;;;5111916;28;20250;-76
2023/10/05 03:02:11;;;;;;;1.70;1.13;;;18.90;70.40;;;;;;5112335;28;20711;-76
2023/10/05 03:04:47;;;;;;;3.88;1.60;;;18.90;70.40;;;;;;5112878;28;20183;-76
2023/10/05 03:07:17;;;;;;;1.60;1.27;;;18.90;70.40;;;;;;5111949;28;20169;-75
2023/10/05 03:09:46;;;;;;;1.83;1.17;;;18.90;70.40;;;;;;5112716;28;20253;-74
2023/10/05 03:12:11;;;;;;;2.83;1.17;;;18.90;70.40;;;;;;5111709;28;20173;-74
2023/10/05 03:14:38;;;;;;;3.78;1.42;;;18.90;70.40;;;;;;5112602;28;20177;-75
2023/10/05 03:17:07;;;;;;;0.80;0.80;;;18.90;70.40;;;;;;5112378;28;20189;-73
2023/10/05 03:19:39;;;;;;;2.03;1.50;;;18.90;70.40;;;;;;5112120;28;20238;-73
2023/10/05 03:22:04;;;;;;;1.55;1.17;;;18.90;70.50;;;;;;5112340;28;20633;-74
2023/10/05 03:24:31;;;;;;;2.53;1.40;;;18.90;70.50;;;;;;5112412;28;20173;-74
2023/10/05 03:26:56;;;;;;;2.03;1.25;;;18.90;70.50;;;;;;5111776;28;20193;-75
2023/10/05 03:29:22;;;;;;;2.58;1.30;;;18.90;70.40;;;;;;5112075;28;20658;-75
2023/10/05 03:31:55;;;;;;;3.85;1.08;;;18.90;70.40;;;;;;5112705;28;20193;-76
2023/10/05 03:34:25;;;;;;;1.70;1.17;;;18.90;70.50;;;;;;5111546;28;20177;-76
2023/10/05 03:36:50;;;;;;;3.15;1.30;;;18.90;70.50;;;;;;5112540;28;20220;-76
2023/10/05 03:39:17;;;;;;;1.27;1.13;;;18.80;70.40;;;;;;5112151;28;20173;-73
2023/10/05 03:41:47;;;;;;;1.65;1.27;;;18.90;70.50;;;;;;5111874;28;20203;-75
2023/10/05 03:44:15;;;;;;;1.88;1.17;;;18.80;70.40;;;;;;5114098;28;20525;-75
2023/10/05 03:46:46;;;;;;;1.70;1.38;;;18.80;70.40;;;;;;5115957;28;20229;-76
2023/10/05 03:49:11;;;;;;;1.98;1.05;;;18.80;70.40;;;;;;5114879;28;20176;-75
2023/10/05 03:51:37;;;;;;;2.05;1.38;;;18.80;70.40;;;;;;5115714;28;20177;-76
2023/10/05 03:54:03;;;;;;;1.85;1.13;;;18.90;70.50;;;;;;5115671;28;20248;-75
2023/10/05 03:56:29;;;;;;;3.63;1.50;;;18.90;70.50;;;;;;5114804;28;20221;-75
2023/10/05 03:58:55;;;;;;;1.92;1.05;;;18.90;70.50;;;;;;5115848;28;20178;-76
2023/10/05 04:01:22;;;;;;;1.27;0.93;;;18.80;70.40;;;;;;5114838;28;20226;-76
2023/10/05 04:03:48;;;;;;;2.47;1.20;;;18.90;70.50;;;;;;5115731;28;20173;-75
2023/10/05 04:06:17;;;;;;;0.98;0.90;;;18.80;70.40;;;;;;5115242;28;20703;-76
2023/10/05 04:08:49;;;;;;;2.00;1.25;;;18.90;70.50;;;;;;5114841;28;20226;-75
2023/10/05 04:11:16;;;;;;;2.83;1.20;;;18.80;70.40;;;;;;5115170;28;20181;-73
2023/10/05 04:13:42;;;;;;;1.65;1.20;;;18.80;70.40;;;;;;5115624;28;20165;-75
2023/10/05 04:16:17;;;;;;;1.70;1.30;;;18.90;70.60;;;;;;5114482;28;20212;-73
2023/10/05 04:18:42;;;;;;;1.10;0.90;;;18.80;70.50;;;;;;5115448;28;20176;-75
2023/10/05 04:21:08;;;;;;;2.13;1.30;;;18.80;70.50;;;;;;5115020;28;20183;-72
2023/10/05 04:23:33;;;;;;;1.65;1.08;;;18.80;70.50;;;;;;5114451;28;20244;-75
2023/10/05 04:26:01;;;;;;;2.60;1.25;;;18.80;70.50;;;;;;5115321;28;20181;-73
2023/10/05 04:28:40;;;;;;;2.22;1.15;;;18.80;70.40;;;;;;5115270;28;20185;-75
2023/10/05 04:31:11;;;;;;;2.13;1.17;;;18.80;70.50;;;;;;5114326;28;20200;-76
2023/10/05 04:33:39;;;;;;;2.92;1.35;;;18.80;70.50;;;;;;5115014;28;20188;-76
2023/10/05 04:36:05;;;;;;;2.55;1.10;;;18.80;70.50;;;;;;5114707;28;20220;-75
2023/10/05 04:38:32;;;;;;;2.20;1.25;;;18.80;70.50;;;;;;5114326;28;20177;-76
2023/10/05 04:40:58;;;;;;;1.48;1.15;;;18.80;70.50;;;;;;5115086;28;20246;-75
2023/10/05 04:43:23;;;;;;;1.70;1.40;;;18.80;70.50;;;;;;5114745;28;20538;-75
2023/10/05 04:45:51;;;;;;;1.50;1.10;;;18.80;70.50;;;;;;5114253;28;20173;-74
2023/10/05 04:48:18;;;;;;;1.30;1.05;;;18.80;70.50;;;;;;5114361;28;20289;-74
2023/10/05 04:50:44;;;;;;;1.38;1.20;;;18.80;70.50;;;;;;5113858;28;20181;-75
2023/10/05 04:53:14;;;;;;;1.15;1.05;;;18.80;70.50;;;;;;5114590;28;20252;-74
2023/10/05 04:55:53;;;;;;;2.35;1.30;;;18.80;70.50;;;;;;5113620;28;20209;-75
2023/10/05 04:58:23;;;;;;;2.92;1.38;;;18.80;70.50;;;;;;5096375;28;20252;-73
2023/10/05 05:01:15;;;;;;;3.45;1.30;;;18.70;71.00;;;;;;5114561;28;20184;-74
2023/10/05 05:03:51;;;;;;;2.28;1.33;;;18.80;70.60;;;;;;5114335;28;20212;-76
2023/10/05 05:06:20;;;;;;;2.20;1.40;;;18.70;70.50;;;;;;5113467;28;20193;-74
2023/10/05 05:08:46;;;;;;;1.80;1.42;;;18.80;70.60;;;;;;5114356;28;20177;-75
2023/10/05 05:11:18;;;;;;;1.80;1.30;;;18.80;70.50;;;;;;5113989;28;20184;-73
2023/10/05 05:13:46;;;;;;;1.48;1.13;;;18.80;70.60;;;;;;5113767;28;20204;-74
2023/10/05 05:16:12;;;;;;;2.22;1.30;;;18.70;70.50;;;;;;5113930;28;20663;-74
2023/10/05 05:18:37;;;;;;;4.55;1.48;;;18.70;70.60;;;;;;5113770;28;20165;-74
2023/10/05 05:21:07;;;;;;;2.28;1.08;;;18.70;70.50;;;;;;5113715;28;20260;-74
2023/10/05 05:23:36;;;;;;;2.20;0.98;;;18.70;70.50;;;;;;5114112;28;20177;-74
2023/10/05 05:26:03;;;;;;;2.33;1.20;;;18.70;70.50;;;;;;5113175;28;20207;-73
2023/10/05 05:28:29;;;;;;;1.58;1.00;;;18.70;70.50;;;;;;5113792;28;20620;-75
2023/10/05 05:30:55;;;;;;;1.30;1.10;;;18.70;70.50;;;;;;5114151;28;20209;-76
2023/10/05 05:33:21;;;;;;;2.63;1.20;;;18.70;70.50;;;;;;5113005;28;20169;-76
2023/10/05 05:35:46;;;;;;;2.53;1.10;;;18.70;71.40;;;;;;5113873;28;20205;-76
2023/10/05 05:38:12;;;;;;;2.92;1.52;;;18.80;70.60;;;;;;5113525;28;20260;-75
2023/10/05 05:40:38;;;;;;;2.17;1.33;;;18.70;70.60;;;;;;5112969;28;20169;-76
2023/10/05 05:43:08;;;;;;;1.38;1.20;;;18.70;70.50;;;;;;5113717;28;20230;-74
2023/10/05 05:45:34;;;;;;;1.63;1.17;;;18.70;70.60;;;;;;5113707;28;20588;-74
2023/10/05 05:48:00;;;;;;;1.63;1.20;;;18.70;70.50;;;;;;5112611;28;20220;-74
2023/10/05 05:50:29;;;;;;;1.50;0.88;;;18.70;70.50;;;;;;5113390;28;20263;-74
2023/10/05 05:52:56;;;;;;;1.48;1.33;;;18.70;70.50;;;;;;5113643;28;20200;-75
2023/10/05 05:55:22;;;;;;;2.25;1.05;;;18.70;70.50;;;;;;5112541;28;20275;-75
2023/10/05 05:57:50;;;;;;;2.05;1.30;;;18.70;71.40;;;;;;5113711;28;20169;-76
2023/10/05 06:00:18;;;;;;;2.47;1.30;;;18.70;70.60;;;;;;5113367;28;20220;-74
2023/10/05 06:02:43;;;;;;;1.98;0.95;;;18.70;70.50;;;;;;5112935;28;20255;-76
2023/10/05 06:05:12;;;;;;;1.30;1.20;;;18.70;70.50;;;;;;5113111;28;20252;-76
2023/10/05 06:07:39;;;;;;;2.20;1.13;;;18.70;70.60;;;;;;5112932;28;20169;-76
2023/10/05 06:10:12;;;;;;;2.00;1.48;;;18.70;70.50;;;;;;5112354;28;20536;-74
2023/10/05 06:12:41;;;;;;;1.77;1.20;;;18.70;70.50;;;;;;5113420;28;20173;-75
2023/10/05 06:15:08;;;;;;;1.92;1.30;;;18.70;70.50;;;;;;5112121;28;20209;-73
2023/10/05 06:17:35;;;;;;;2.70;1.55;;;18.70;70.60;;;;;;5113099;28;20200;-74
2023/10/05 06:20:04;;;;;;;2.10;1.10;;;18.70;70.60;;;;;;5112840;28;20181;-72
2023/10/05 06:22:30;;;;;;;2.47;1.45;;;18.70;70.50;;;;;;5112896;28;20184;-74
2023/10/05 06:24:55;;;;;;;1.48;1.15;;;18.70;70.50;;;;;;5113337;28;20169;-75
2023/10/05 06:27:21;;;;;;;2.45;1.35;;;18.70;70.60;;;;;;5112780;28;20165;-74
2023/10/05 06:29:47;;;;;;;2.15;1.08;;;18.70;70.50;;;;;;5112505;28;20173;-75
2023/10/05 06:32:12;;;;;;;1.27;1.10;;;18.70;70.50;;;;;;5112821;28;20248;-75
2023/10/05 06:34:38;;;;;;;1.88;1.00;;;18.70;70.50;;;;;;5112919;28;20647;-76
2023/10/05 06:37:04;;;;;;;1.90;1.30;;;18.60;70.50;;;;;;5111891;28;20204;-76
2023/10/05 06:39:32;;;;;;;2.85;1.40;;;18.70;70.50;;;;;;5112866;28;20608;-75
2023/10/05 06:41:58;;;;;;;2.08;1.20;;;18.70;70.50;;;;;;5112824;28;20173;-75
2023/10/05 06:44:24;;;;;;;1.88;1.38;;;18.70;70.50;;;;;;5112006;28;20242;-75
2023/10/05 06:46:49;;;;;;;1.55;1.00;;;18.70;70.50;;;;;;5112823;28;20313;-75
2023/10/05 06:49:16;;;;;;;1.65;1.13;;;18.70;70.50;;;;;;5112489;28;20260;-74
2023/10/05 06:51:45;;;;;;;1.33;1.20;;;18.70;70.50;;;;;;5112194;28;20268;-74
2023/10/05 06:54:11;;;;;;;1.65;1.10;;;18.70;70.50;;;;;;5112734;28;20206;-74
2023/10/05 06:56:36;;;;;;;1.90;1.05;;;18.70;70.50;;;;;;5112730;28;20217;-76
2023/10/05 06:59:04;;;;;;;1.20;1.02;;;18.70;70.50;;;;;;5111887;28;20627;-75
2023/10/05 07:01:34;;;;;;;2.05;1.25;;;18.70;70.50;;;;;;5112632;28;20181;-76
2023/10/05 07:04:00;;;;;;;1.90;1.13;;;18.70;70.50;;;;;;5112591;28;20214;-75
2023/10/05 07:06:29;;;;;;;1.83;1.10;;;18.70;70.50;;;;;;5112158;28;20181;-76
2023/10/05 07:08:55;;;;;;;2.17;1.33;;;18.70;70.50;;;;;;5112889;28;20177;-76
2023/10/05 07:11:21;;;;;;;2.13;1.23;;;18.80;70.50;;;;;;5111814;28;20563;-76
2023/10/05 07:13:47;;;;;;;3.17;1.65;;;18.70;70.40;;;;;;5112921;28;20659;-76
2023/10/05 07:16:15;;;;;;;1.90;1.45;;;18.80;70.50;;;;;;5112415;28;20197;-73
2023/10/05 07:18:41;;;;;;;1.42;1.10;;;18.80;70.50;;;;;;5113161;28;20173;-76
2023/10/05 07:21:08;;;;;;;2.22;1.58;;;18.80;70.50;;;;;;5116548;28;20173;-73
2023/10/05 07:23:39;;;;;;;1.23;1.13;;;18.90;70.50;;;;;;5116538;28;20173;-75
2023/10/05 07:26:09;;;;;;;2.30;1.48;;;18.80;70.40;;;;;;5115402;28;20180;-73
2023/10/05 07:28:35;;;;;;;1.50;1.17;;;18.80;70.30;;;;;;5116263;28;20199;-77
2023/10/05 07:31:00;;;;;;;2.00;1.30;;;18.80;70.30;;;;;;5116014;28;20169;-76
2023/10/05 07:33:26;;;;;;;1.95;1.20;;;18.80;70.30;;;;;;5115623;28;20177;-77
2023/10/05 07:35:53;;;;;;;1.48;1.38;;;18.80;71.20;;;;;;5116363;28;20308;-77
2023/10/05 07:38:20;;;;;;;2.28;1.08;;;18.80;70.30;;;;;;5115747;28;20244;-76
2023/10/05 07:40:46;;;;;;;2.55;1.58;;;18.90;70.40;;;;;;5115393;28;20185;-76
2023/10/05 07:43:11;;;;;;;1.85;1.00;;;18.80;70.30;;;;;;5115778;28;20203;-76
2023/10/05 07:45:37;;;;;;;1.60;1.23;;;18.90;70.40;;;;;;5115905;28;20197;-76
2023/10/05 07:48:04;;;;;;;2.00;1.10;;;18.90;70.40;;;;;;5115033;28;20304;-74
2023/10/05 07:50:30;;;;;;;1.25;1.15;;;18.80;70.20;;;;;;5115718;28;20261;-76
2023/10/05 07:52:58;;;;;;;2.05;1.35;;;18.90;70.30;;;;;;5116002;28;20267;-76
2023/10/05 07:55:24;;;;;;;2.83;1.38;;;18.90;70.20;;;;;;5114908;28;20208;-76
2023/10/05 07:57:50;;;;;;;1.70;1.30;;;18.90;70.20;;;;;;5115827;28;20186;-76
2023/10/05 08:00:16;;;;;;;2.83;1.35;;;18.90;70.20;;;;;;5115427;28;20180;-75
2023/10/05 08:02:41;;;;;;;2.35;1.17;;;18.90;70.10;;;;;;5115197;28;20535;-76
2023/10/05 08:05:12;;;;;;;2.20;1.52;;;19.00;70.20;;;;;;5115647;28;20184;-76
2023/10/05 08:07:37;;;;;;;1.80;1.30;;;19.00;70.10;;;;;;5114965;28;20177;-77
2023/10/05 08:10:04;;;;;;;2.08;1.30;;;19.00;70.20;;;;;;5115609;28;20169;-75
2023/10/05 08:12:30;;;;;;;2.70;1.27;;;19.00;70.20;;;;;;5115195;28;20184;-77
2023/10/05 08:14:56;;;;;;;1.55;1.02;;;19.00;70.20;;;;;;5114765;28;20169;-76
2023/10/05 08:17:21;;;;;;;1.63;1.30;;;18.90;70.20;;;;;;5115206;28;20241;-75
2023/10/05 08:19:47;;;;;;;1.77;1.30;;;19.00;70.30;;;;;;5115543;28;20169;-75
2023/10/05 08:22:16;;;;;;;3.75;1.48;;;19.00;70.30;;;;;;5114387;28;20310;-73
2023/10/05 08:24:42;;;;;;;2.90;1.35;;;19.00;70.30;;;;;;5115160;28;20180;-75
2023/10/05 08:27:11;;;;;;;1.73;1.23;;;19.00;70.20;;;;;;5115076;28;20169;-74
2023/10/05 08:29:39;;;;;;;1.70;1.38;;;19.00;70.20;;;;;;5114612;28;20191;-75
2023/10/05 08:32:06;;;;;;;2.22;1.20;;;19.00;70.10;;;;;;5115143;28;20188;-77
2023/10/05 08:34:32;;;;;;;2.00;1.17;;;19.00;70.80;;;;;;5114907;28;20180;-76
2023/10/05 08:36:57;;;;;;;2.88;1.58;;;19.10;69.90;;;;;;5114089;28;20675;-76
2023/10/05 08:39:25;;;;;;;2.00;1.23;;;19.10;69.70;;;;;;5114714;28;20180;-75
2023/10/05 08:41:55;;;;;;;1.40;1.10;;;19.20;69.70;;;;;;5114868;28;20177;-73
2023/10/05 08:44:26;;;;;;;1.48;1.20;;;19.10;69.60;;;;;;5113860;28;20173;-75
2023/10/05 08:46:58;;;;;;;2.67;1.50;;;19.10;69.60;;;;;;5114470;28;20216;-75
2023/10/05 08:49:24;;;;;;;1.77;1.20;;;19.20;69.60;;;;;;5124153;27;20173;-71
2023/10/05 08:51:50;;;;;;;2.95;1.42;;;19.30;69.50;;;;;;5134273;27;20187;-74
2023/10/05 08:54:16;;;;;;;1.67;1.17;;;19.30;69.40;;;;;;5134544;27;20173;-75
2023/10/05 08:56:47;;;;;;;1.80;1.40;;;19.30;69.50;;;;;;5116246;27;20212;-72
2023/10/05 08:59:15;;;;;;;2.40;1.35;;;19.30;69.60;;;;;;5134709;27;20611;-72
2023/10/05 09:01:45;;;;;;;2.22;1.40;;;19.40;70.40;;;;;;5135265;27;20180;-71
2023/10/05 09:06:59;;;;;;;2.22;1.55;;;19.30;69.60;;;;;;5134903;27;20224;-72
2023/10/05 09:09:52;;;;;;;3.03;1.70;;;19.40;69.70;;;;;;5134971;27;20169;-71
2023/10/05 09:12:33;;;;;;;2.15;1.30;;;19.40;69.70;;;;;;5134040;27;20701;-73
2023/10/05 09:17:57;;;;;;;4.07;1.55;;;19.40;69.70;;;;;;5134347;27;20264;-71
2023/10/05 09:20:30;;;;;;;1.67;1.08;;;19.40;69.70;;;;;;5134581;27;20169;-72
2023/10/05 09:22:56;;;;;;;2.05;1.38;;;19.40;69.80;;;;;;5134595;27;20172;-72
2023/10/05 09:25:29;;;;;;;4.28;1.73;;;19.40;69.90;;;;;;5133528;27;20180;-72
2023/10/05 09:27:56;;;;;;;2.97;1.70;;;19.30;69.90;;;;;;5134531;27;20168;-71
2023/10/05 09:30:22;;;;;;;2.53;1.58;;;19.30;70.00;;;;;;5134250;27;20226;-69
2023/10/05 09:32:48;;;;;;;3.03;1.60;;;19.30;70.10;;;;;;5133893;27;20176;-68
2023/10/05 09:35:31;;;;;;;3.83;1.48;;;19.30;70.20;;;;;;5134036;27;20273;-71
2023/10/05 09:37:58;;;;;;;2.38;1.45;;;19.30;70.30;;;;;;5124953;27;20181;-70
2023/10/05 09:40:24;;;;;;;3.95;1.83;;;19.30;70.30;;;;;;5115981;27;20168;-71
2023/10/05 09:42:53;;;;;;;2.67;1.83;;;19.30;70.40;;;;;;5116039;27;20176;-69
2023/10/05 09:45:19;;;;;;;2.95;1.77;;;19.20;70.40;;;;;;5107147;28;20196;-69
2023/10/05 09:47:46;;;;;;;3.95;1.65;;;19.20;70.40;;;;;;5108426;27;20681;-69
2023/10/05 09:50:12;;;;;;;2.80;1.65;;;19.20;70.40;;;;;;5134056;27;20172;-69
2023/10/05 09:52:38;;;;;;;3.58;1.75;;;19.20;70.50;;;;;;5134266;27;20281;-69
2023/10/05 09:55:05;;;;;;;2.55;1.80;;;19.20;70.50;;;;;;5114205;28;20647;-70
2023/10/05 09:57:41;;;;;;;2.25;1.27;;;19.20;70.50;;;;;;5113278;28;20718;-70
2023/10/05 10:00:11;;;;;;;3.47;1.30;;;19.30;70.70;;;;;;5112534;28;20169;-72
2023/10/05 10:02:38;;;;;;;6.30;1.90;;;19.20;70.60;;;;;;5113237;28;20225;-70
2023/10/05 10:05:16;;;;;;;2.65;1.33;;;19.20;70.60;;;;;;5095521;28;20180;-70
2023/10/05 10:07:43;;;;;;;2.65;1.50;;;19.20;70.60;;;;;;5095853;28;20169;-70
2023/10/05 10:10:09;;;;;;;3.03;1.50;;;19.20;70.50;;;;;;5097280;27;20176;-71
2023/10/05 10:12:43;;;;;;;2.38;1.67;;;19.20;70.60;;;;;;5115595;27;20172;-71
2023/10/05 10:15:25;;;;;;;3.25;1.60;;;19.20;70.60;;;;;;5115647;27;20177;-71
2023/10/05 10:18:03;;;;;;;2.72;1.40;;;19.20;70.60;;;;;;5102669;28;20673;-70
2023/10/05 10:20:38;;;;;;;2.95;1.48;;;19.30;70.70;;;;;;5112990;28;20173;-71
2023/10/05 10:23:18;;;;;;;2.33;1.50;;;19.20;70.80;;;;;;5112448;28;20172;-71
2023/10/05 10:25:45;;;;;;;2.10;1.70;;;19.20;70.80;;;;;;5113259;28;20264;-71
2023/10/05 10:28:14;;;;;;;3.58;1.20;;;19.20;70.60;;;;;;5111986;28;20181;-70
2023/10/05 10:30:48;;;;;;;3.33;1.58;;;19.30;70.70;;;;;;5113174;28;20196;-70
2023/10/05 10:33:42;;;;;;;4.80;2.00;;;19.30;70.60;;;;;;5095676;28;20177;-71
2023/10/05 10:36:21;;;;;;;3.20;1.58;;;19.30;70.60;;;;;;5112038;28;20209;-70
2023/10/05 10:38:50;;;;;;;1.75;1.30;;;19.30;70.60;;;;;;5113243;28;20169;-71
2023/10/05 10:41:16;;;;;;;2.15;1.52;;;19.20;70.60;;;;;;5112834;28;20180;-72
2023/10/05 10:43:49;;;;;;;5.53;1.67;;;19.30;70.70;;;;;;5112245;28;20173;-69
2023/10/05 10:46:28;;;;;;;2.85;1.70;;;19.20;71.50;;;;;;5095591;28;20317;-69
2023/10/05 10:48:57;;;;;;;4.18;1.40;;;19.20;70.60;;;;;;5112877;28;20210;-68
2023/10/05 10:51:23;;;;;;;3.05;1.55;;;19.20;70.70;;;;;;5111987;28;20263;-69
2023/10/05 10:53:55;;;;;;;1.92;1.50;;;19.20;71.50;;;;;;5114479;28;20197;-69
2023/10/05 10:56:27;;;;;;;2.72;1.70;;;19.30;70.70;;;;;;5115956;28;20212;-70
2023/10/05 10:59:10;;;;;;;4.20;1.55;;;19.30;70.70;;;;;;5116970;28;20631;-70
2023/10/05 11:01:44;;;;;;;3.88;1.75;;;19.30;70.70;;;;;;5101454;28;20161;-70
2023/10/05 11:04:26;;;;;;;1.90;1.60;;;19.30;70.70;;;;;;5116211;28;20177;-70
2023/10/05 11:07:00;;;;;;;3.53;1.55;;;19.30;70.70;;;;;;5117046;28;20181;-70
2023/10/05 11:09:35;;;;;;;2.30;1.60;;;19.30;70.60;;;;;;5116751;28;20514;-71
2023/10/05 11:12:11;;;;;;;2.17;1.33;;;19.30;70.50;;;;;;5115848;28;20586;-71
2023/10/05 11:14:42;;;;;;;2.85;1.65;;;19.40;70.50;;;;;;5116602;28;20638;-71
2023/10/05 11:17:34;;;;;;;3.47;1.85;;;19.40;70.40;;;;;;5116416;28;20236;-72
2023/10/05 11:20:12;;;;;;;3.10;1.40;;;19.40;70.30;;;;;;5116379;28;20184;-71
2023/10/05 11:22:42;;;;;;;3.30;1.60;;;19.50;70.50;;;;;;5116456;28;20208;-71
2023/10/05 11:25:14;;;;;;;2.65;1.27;;;19.40;70.40;;;;;;5098164;28;20173;-72
2023/10/05 11:27:44;;;;;;;1.90;1.40;;;19.40;70.40;;;;;;5116497;28;20172;-70
2023/10/05 11:30:18;;;;;;;2.60;1.33;;;19.40;70.50;;;;;;5116216;28;20264;-70
2023/10/05 11:32:45;;;;;;;2.13;1.30;;;19.40;70.40;;;;;;5098438;28;20214;-69
2023/10/05 11:35:13;;;;;;;2.13;1.40;;;19.40;70.40;;;;;;5116197;28;20180;-70
2023/10/05 11:37:39;;;;;;;2.75;1.80;;;19.40;70.30;;;;;;5116085;28;20181;-71
2023/10/05 11:40:07;;;;;;;3.17;1.60;;;19.40;70.30;;;;;;5115219;28;20184;-70
2023/10/05 11:42:36;;;;;;;3.60;1.50;;;19.40;70.30;;;;;;5116052;28;20177;-70
2023/10/05 11:45:12;;;;;;;3.03;1.48;;;19.50;70.40;;;;;;5115779;28;20647;-69
2023/10/05 11:47:44;;;;;;;2.72;1.10;;;19.40;70.40;;;;;;5114580;28;20232;-69
2023/10/05 11:50:24;;;;;;;3.38;1.70;;;19.40;70.50;;;;;;5114584;28;20190;-69
2023/10/05 11:52:52;;;;;;;2.63;1.40;;;19.40;70.50;;;;;;5114289;28;20176;-68
2023/10/05 11:55:18;;;;;;;2.22;1.38;;;19.40;70.40;;;;;;5114326;28;20173;-70
2023/10/05 11:57:44;;;;;;;3.08;1.73;;;19.50;70.40;;;;;;5114631;28;20205;-70
2023/10/05 12:00:16;;;;;;;2.65;1.70;;;19.50;70.30;;;;;;5113833;28;20310;-71
2023/10/05 12:02:43;;;;;;;2.60;1.33;;;19.50;70.20;;;;;;5114663;28;20530;-70
2023/10/05 12:05:09;;;;;;;1.75;1.30;;;19.60;70.20;;;;;;5113902;28;20263;-69
2023/10/05 12:07:38;;;;;;;1.33;1.23;;;19.60;70.00;;;;;;5113748;28;20178;-69
2023/10/05 12:10:09;;;;;;;2.00;1.27;;;19.60;70.00;;;;;;5096444;28;20173;-71
2023/10/05 12:12:41;;;;;;;2.65;1.42;;;19.60;70.10;;;;;;5114474;28;20173;-71
2023/10/05 12:15:12;;;;;;;2.95;1.50;;;19.50;70.10;;;;;;5113258;28;20532;-72
2023/10/05 12:17:41;;;;;;;1.85;1.52;;;19.50;70.30;;;;;;5114371;28;20187;-70
2023/10/05 12:20:08;;;;;;;3.75;1.60;;;19.50;70.40;;;;;;5114173;28;20172;-71
2023/10/05 12:22:33;;;;;;;1.52;1.35;;;19.50;70.40;;;;;;5113450;28;20173;-71
2023/10/05 12:24:59;;;;;;;3.67;1.40;;;19.50;70.40;;;;;;5113983;28;20177;-72
2023/10/05 12:27:26;;;;;;;2.38;1.38;;;19.60;70.40;;;;;;5114126;28;20540;-70
2023/10/05 12:29:52;;;;;;;1.70;1.20;;;19.50;70.40;;;;;;5113685;28;20177;-69
2023/10/05 12:32:18;;;;;;;2.55;1.23;;;19.50;70.40;;;;;;5113966;28;20222;-70
2023/10/05 12:34:47;;;;;;;2.13;1.40;;;19.50;70.50;;;;;;5113370;28;20538;-70
2023/10/05 12:37:17;;;;;;;3.28;1.73;;;19.50;70.40;;;;;;5113644;28;20212;-72
2023/10/05 12:39:44;;;;;;;2.53;1.50;;;19.50;70.50;;;;;;5114158;28;20177;-70
2023/10/05 12:42:10;;;;;;;1.88;1.25;;;19.50;70.50;;;;;;5112934;28;20639;-71
2023/10/05 12:44:36;;;;;;;2.47;1.30;;;19.40;70.50;;;;;;5113991;28;20702;-69
2023/10/05 12:47:05;;;;;;;2.22;1.45;;;19.50;70.50;;;;;;5075967;28;1075163;-70
2023/10/05 12:49:33;;;;;;;1.33;1.23;;;19.40;70.50;;;;;;5114030;28;20181;-68
2023/10/05 12:51:59;;;;;;;2.05;1.33;;;19.40;70.50;;;;;;5114807;28;20185;-69
2023/10/05 12:54:34;;;;;;;1.98;1.10;;;19.50;70.60;;;;;;5114014;28;20184;-70
2023/10/05 12:57:09;;;;;;;2.63;1.55;;;19.40;70.60;;;;;;5114020;28;20213;-71
2023/10/05 12:59:34;;;;;;;2.42;1.35;;;19.40;70.60;;;;;;5115004;28;20176;-71
2023/10/05 13:02:07;;;;;;;1.65;1.23;;;19.40;70.60;;;;;;5114486;28;20549;-71
2023/10/05 13:04:32;;;;;;;2.15;1.50;;;19.40;70.60;;;;;;5113728;28;20184;-70
2023/10/05 13:06:58;;;;;;;3.13;1.67;;;19.40;70.60;;;;;;5114531;28;20187;-69
2023/10/05 13:09:23;;;;;;;3.38;1.65;;;19.40;70.70;;;;;;5114438;28;20572;-70
2023/10/05 13:11:49;;;;;;;1.58;1.20;;;19.40;70.80;;;;;;5113936;28;20170;-70